Time;durP1;ratioP1;P1;durP2;ratioP2;P2;SDS_P1;SDS_P2;PMS_P1;PMS_P2;Temp;Humidity;BMP_temperature;BMP_pressure;BME280_temperature;BME280_humidity;BME280_pressure;Samples;Min_cycle;Max_cycle;Signal;HPM_P1;HPM_P2
2021/07/25 00:00:08;;;;;;;;;;;;;;;;;;2108222;28;1427;-91
2021/07/25 00:01:13;;;;;;;;;;;;;;;;;;2107642;28;1196;-91
2021/07/25 00:02:14;;;;;;;;;;;;;;;;;;2100730;28;1922;-92
2021/07/25 00:03:16;;;;;;;;;;;;;;;;;;2115548;28;1273;-91
2021/07/25 00:04:16;;;;;;;;;;;;;;;;;;2115725;28;1322;-91
2021/07/25 00:05:18;;;;;;;;;;;;;;;;;;2107640;28;1363;-91
2021/07/25 00:06:19;;;;;;;;;;;;;;;;;;2107904;28;1901;-92
2021/07/25 00:07:21;;;;;;;;;;;;;;;;;;2107053;28;1819;-90
2021/07/25 00:08:23;;;;;;;;;;;;;;;;;;2108324;28;1371;-93
2021/07/25 00:09:25;;;;;;;;;;;;;;;;;;2099608;28;1195;-93
2021/07/25 00:10:26;;;;;;;;;;;;;;;;;;2107399;28;1263;-94
2021/07/25 00:11:28;;;;;;;;;;;;;;;;;;2116402;28;1281;-93
2021/07/25 00:12:28;;;;;;;;;;;;;;;;;;2107429;28;1479;-93
2021/07/25 00:13:31;;;;;;;;;;;;;;;;;;2108196;28;1275;-94
2021/07/25 00:14:32;;;;;;;;;;;;;;;;;;2107833;28;946;-94
2021/07/25 00:15:34;;;;;;;;;;;;;;;;;;2107915;28;1466;-94
2021/07/25 00:16:34;;;;;;;;;;;;;;;;;;2107082;28;1320;-94
2021/07/25 00:17:36;;;;;;;;;;;;;;;;;;2095447;28;1258;-93
2021/07/25 00:18:37;;;;;;;;;;;;;;;;;;2099640;28;1270;-94
2021/07/25 00:19:39;;;;;;;;;;;;;;;;;;2106605;28;1194;-94
2021/07/25 00:20:40;;;;;;;;;;;;;;;;;;2107293;28;1354;-93
2021/07/25 00:21:42;;;;;;;;;;;;;;;;;;2099381;28;1343;-94
2021/07/25 00:22:42;;;;;;;;;;;;;;;;;;2107327;28;1367;-95
2021/07/25 00:23:48;;;;;;;;;;;;;;;;;;2115780;28;2016;-94
2021/07/25 00:24:51;;;;;;;;;;;;;;;;;;2107526;28;1270;-93
2021/07/25 00:25:56;;;;;;;;;;;;;;;;;;2107684;28;1918;-93
2021/07/25 00:26:59;;;;;;;;;;;;;;;;;;2115485;28;1027;-93
2021/07/25 00:28:01;;;;;;;;;;;;;;;;;;2107933;28;1470;-94
2021/07/25 00:29:01;;;;;;;;;;;;;;;;;;2101363;28;1216;-92
2021/07/25 00:30:04;;;;;;;;;;;;;;;;;;2107464;28;1375;-93
2021/07/25 00:31:05;;;;;;;;;;;;;;;;;;2107789;28;1262;-93
2021/07/25 00:32:08;;;;;;;;;;;;;;;;;;2116073;28;1389;-92
2021/07/25 00:33:08;;;;;;;;;;;;;;;;;;2116357;28;1284;-93
2021/07/25 00:34:10;;;;;;;;;;;;;;;;;;2119882;28;2118;-92
2021/07/25 00:35:11;;;;;;;;;;;;;;;;;;2107346;28;1349;-93
2021/07/25 00:36:13;;;;;;;;;;;;;;;;;;2107975;28;1484;-93
2021/07/25 00:37:14;;;;;;;;;;;;;;;;;;2108575;28;1912;-93
2021/07/25 00:38:16;;;;;;;;;;;;;;;;;;2107481;28;1380;-93
2021/07/25 00:39:18;;;;;;;;;;;;;;;;;;2111916;28;1212;-93
2021/07/25 00:40:24;;;;;;;;;;;;;;;;;;2116005;28;1240;-93
2021/07/25 00:41:25;;;;;;;;;;;;;;;;;;2107541;28;1509;-93
2021/07/25 00:42:36;;;;;;;;;;;;;;;;;;2098964;28;1232;-93
2021/07/25 00:43:37;;;;;;;;;;;;;;;;;;2109259;28;1299;-93
2021/07/25 00:44:39;;;;;;;;;;;;;;;;;;2108354;28;768;-93
2021/07/25 00:45:40;;;;;;;;;;;;;;;;;;2099443;28;1894;-93
2021/07/25 00:46:42;;;;;;;;;;;;;;;;;;2098806;28;1289;-92
2021/07/25 00:47:45;;;;;;;;;;;;;;;;;;2112718;28;1415;-92
2021/07/25 00:48:48;;;;;;;;;;;;;;;;;;2116243;28;758;-93
2021/07/25 00:49:48;;;;;;;;;;;;;;;;;;2118593;28;793;-93
2021/07/25 00:50:50;;;;;;;;;;;;;;;;;;2117304;28;1289;-93
2021/07/25 00:51:51;;;;;;;;;;;;;;;;;;2109048;28;1389;-93
2021/07/25 00:52:54;;;;;;;;;;;;;;;;;;2108656;28;1353;-93
2021/07/25 00:53:55;;;;;;;;;;;;;;;;;;2117574;28;1543;-92
2021/07/25 00:54:58;;;;;;;;;;;;;;;;;;2117773;28;1287;-92
2021/07/25 00:55:59;;;;;;;;;;;;;;;;;;2117894;28;898;-92
2021/07/25 00:57:01;;;;;;;;;;;;;;;;;;2117706;28;1296;-93
2021/07/25 00:58:02;;;;;;;;;;;;;;;;;;2101000;28;1257;-92
2021/07/25 00:59:05;;;;;;;;;;;;;;;;;;2092418;28;1388;-92
2021/07/25 01:00:07;;;;;;;;;;;;;;;;;;2092942;28;1204;-92
2021/07/25 01:01:09;;;;;;;;;;;;;;;;;;2109256;28;1285;-93
2021/07/25 01:02:10;;;;;;;;;;;;;;;;;;2100341;28;1303;-93
2021/07/25 01:03:16;;;;;;;;;;;;;;;;;;2092500;28;816;-92
2021/07/25 01:04:24;;;;;;;;;;;;;;;;;;2101538;28;827;-92
2021/07/25 01:05:32;;;;;;;;;;;;;;;;;;2100402;28;1134;-92
2021/07/25 01:06:38;;;;;;;;;;;;;;;;;;2100254;28;1918;-91
2021/07/25 01:07:46;;;;;;;;;;;;;;;;;;2100968;28;1330;-92
2021/07/25 01:08:50;;;;;;;;;;;;;;;;;;2101657;28;1868;-92
2021/07/25 01:09:54;;;;;;;;;;;;;;;;;;2109728;28;834;-92
2021/07/25 01:10:58;;;;;;;;;;;;;;;;;;2109496;28;884;-93
2021/07/25 01:12:05;;;;;;;;;;;;;;;;;;2109065;28;1533;-93
2021/07/25 01:13:08;;;;;;;;;;;;;;;;;;2092813;28;1401;-93
2021/07/25 01:14:10;;;;;;;;;;;;;;;;;;2104118;28;1850;-92
2021/07/25 01:15:13;;;;;;;;;;;;;;;;;;2108727;28;1443;-93
2021/07/25 01:16:15;;;;;;;;;;;;;;;;;;2108681;28;1365;-92
2021/07/25 01:17:29;;;;;;;;;;;;;;;;;;2099866;28;1926;-90
2021/07/25 01:18:31;;;;;;;;;;;;;;;;;;2106805;28;1239;-92
2021/07/25 01:19:31;;;;;;;;;;;;;;;;;;2106547;28;2093;-93
2021/07/25 01:20:35;;;;;;;;;;;;;;;;;;2099986;28;1402;-93
2021/07/25 01:21:36;;;;;;;;;;;;;;;;;;2091956;28;1377;-92
2021/07/25 01:22:39;;;;;;;;;;;;;;;;;;2100277;28;1859;-92
2021/07/25 01:23:40;;;;;;;;;;;;;;;;;;2103977;28;1368;-91
2021/07/25 01:24:41;;;;;;;;;;;;;;;;;;2093328;28;2027;-93
2021/07/25 01:25:44;;;;;;;;;;;;;;;;;;2084264;28;1297;-93
2021/07/25 01:26:45;;;;;;;;;;;;;;;;;;2100911;28;1894;-92
2021/07/25 01:27:49;;;;;;;;;;;;;;;;;;2100089;28;1903;-93
2021/07/25 01:28:50;;;;;;;;;;;;;;;;;;2092202;28;1880;-93
2021/07/25 01:29:52;;;;;;;;;;;;;;;;;;2091812;28;1327;-94
2021/07/25 01:30:54;;;;;;;;;;;;;;;;;;2092175;28;1291;-93
2021/07/25 01:31:56;;;;;;;;;;;;;;;;;;2091974;28;1246;-93
2021/07/25 01:32:58;;;;;;;;;;;;;;;;;;2090915;28;1840;-91
2021/07/25 01:34:01;;;;;;;;;;;;;;;;;;2100695;28;1286;-91
2021/07/25 01:35:02;;;;;;;;;;;;;;;;;;2091704;28;1102;-92
2021/07/25 01:36:06;;;;;;;;;;;;;;;;;;2084287;28;1263;-92
2021/07/25 01:37:07;;;;;;;;;;;;;;;;;;2083987;28;1330;-92
2021/07/25 01:38:09;;;;;;;;;;;;;;;;;;2092164;28;1303;-93
2021/07/25 01:39:10;;;;;;;;;;;;;;;;;;2108016;28;1334;-93
2021/07/25 01:40:12;;;;;;;;;;;;;;;;;;2100052;28;1403;-93
2021/07/25 01:41:15;;;;;;;;;;;;;;;;;;2108750;28;1522;-93
2021/07/25 01:42:26;;;;;;;;;;;;;;;;;;2116821;28;1870;-93
2021/07/25 01:43:27;;;;;;;;;;;;;;;;;;2110634;28;1248;-93
2021/07/25 01:44:29;;;;;;;;;;;;;;;;;;2108684;28;1248;-93
2021/07/25 01:45:29;;;;;;;;;;;;;;;;;;2109019;28;1259;-91
2021/07/25 01:46:31;;;;;;;;;;;;;;;;;;2108330;28;1972;-92
2021/07/25 01:47:32;;;;;;;;;;;;;;;;;;2108344;28;1409;-93
2021/07/25 01:48:36;;;;;;;;;;;;;;;;;;2117048;28;1058;-93
2021/07/25 01:49:36;;;;;;;;;;;;;;;;;;2110419;28;1277;-92
2021/07/25 01:50:38;;;;;;;;;;;;;;;;;;2100399;28;1288;-92
2021/07/25 01:51:40;;;;;;;;;;;;;;;;;;2084229;28;1508;-93
2021/07/25 01:52:43;;;;;;;;;;;;;;;;;;2097531;28;799;-92
2021/07/25 01:53:43;;;;;;;;;;;;;;;;;;2100387;28;1263;-92
2021/07/25 01:54:45;;;;;;;;;;;;;;;;;;2100865;28;1423;-92
2021/07/25 01:55:45;;;;;;;;;;;;;;;;;;2100573;28;1207;-92
2021/07/25 01:56:47;;;;;;;;;;;;;;;;;;2091335;28;1246;-92
2021/07/25 01:57:48;;;;;;;;;;;;;;;;;;2095659;28;1895;-93
2021/07/25 01:58:50;;;;;;;;;;;;;;;;;;2107794;28;1461;-92
2021/07/25 01:59:51;;;;;;;;;;;;;;;;;;2092499;28;803;-92
2021/07/25 02:00:53;;;;;;;;;;;;;;;;;;2100484;28;1326;-92
2021/07/25 02:01:53;;;;;;;;;;;;;;;;;;2108531;28;1501;-91
2021/07/25 02:02:55;;;;;;;;;;;;;;;;;;2101165;28;1919;-91
2021/07/25 02:03:56;;;;;;;;;;;;;;;;;;2100178;28;2125;-92
2021/07/25 02:04:58;;;;;;;;;;;;;;;;;;2100018;28;1313;-92
2021/07/25 02:05:59;;;;;;;;;;;;;;;;;;2099920;28;1098;-93
2021/07/25 02:07:02;;;;;;;;;;;;;;;;;;2091618;28;1906;-92
2021/07/25 02:08:04;;;;;;;;;;;;;;;;;;2084148;28;1398;-93
2021/07/25 02:09:08;;;;;;;;;;;;;;;;;;2102745;28;1221;-93
2021/07/25 02:10:09;;;;;;;;;;;;;;;;;;2117118;28;1243;-92
2021/07/25 02:11:10;;;;;;;;;;;;;;;;;;2116603;28;1328;-92
2021/07/25 02:12:11;;;;;;;;;;;;;;;;;;2117263;28;1878;-92
2021/07/25 02:13:13;;;;;;;;;;;;;;;;;;2116669;28;1245;-93
2021/07/25 02:14:14;;;;;;;;;;;;;;;;;;2103828;28;2002;-92
2021/07/25 02:15:16;;;;;;;;;;;;;;;;;;2108592;28;765;-92
2021/07/25 02:16:16;;;;;;;;;;;;;;;;;;2100281;28;1454;-92
2021/07/25 02:17:18;;;;;;;;;;;;;;;;;;2095163;28;1883;-91
2021/07/25 02:18:19;;;;;;;;;;;;;;;;;;2108697;28;1419;-92
2021/07/25 02:19:21;;;;;;;;;;;;;;;;;;2094729;28;1286;-91
2021/07/25 02:20:22;;;;;;;;;;;;;;;;;;2099806;28;1267;-91
2021/07/25 02:21:24;;;;;;;;;;;;;;;;;;2091560;28;1394;-92
2021/07/25 02:22:26;;;;;;;;;;;;;;;;;;2099759;28;1115;-91
2021/07/25 02:23:28;;;;;;;;;;;;;;;;;;2100410;28;1369;-91
2021/07/25 02:24:28;;;;;;;;;;;;;;;;;;2097471;28;1336;-91
2021/07/25 02:25:30;;;;;;;;;;;;;;;;;;2100317;28;1449;-91
2021/07/25 02:26:31;;;;;;;;;;;;;;;;;;2099762;28;1905;-91
2021/07/25 02:27:33;;;;;;;;;;;;;;;;;;2099175;28;1276;-92
2021/07/25 02:28:34;;;;;;;;;;;;;;;;;;2116611;28;1460;-92
2021/07/25 02:29:36;;;;;;;;;;;;;;;;;;2109757;28;1300;-92
2021/07/25 02:30:36;;;;;;;;;;;;;;;;;;2099957;28;1273;-92
2021/07/25 02:31:38;;;;;;;;;;;;;;;;;;2099714;28;1402;-91
2021/07/25 02:32:39;;;;;;;;;;;;;;;;;;2109841;28;774;-92
2021/07/25 02:33:41;;;;;;;;;;;;;;;;;;2116633;28;1171;-91
2021/07/25 02:34:41;;;;;;;;;;;;;;;;;;2108042;28;1473;-91
2021/07/25 02:35:43;;;;;;;;;;;;;;;;;;2116952;28;1386;-90
2021/07/25 02:36:44;;;;;;;;;;;;;;;;;;2108360;28;1433;-92
2021/07/25 02:37:47;;;;;;;;;;;;;;;;;;2102352;28;1366;-92
2021/07/25 02:38:48;;;;;;;;;;;;;;;;;;2092538;28;2077;-92
2021/07/25 02:39:50;;;;;;;;;;;;;;;;;;2091431;28;1332;-91
2021/07/25 02:40:51;;;;;;;;;;;;;;;;;;2100130;28;906;-92
2021/07/25 02:41:52;;;;;;;;;;;;;;;;;;2106423;28;1413;-93
2021/07/25 02:42:53;;;;;;;;;;;;;;;;;;2099796;28;1309;-90
2021/07/25 02:43:55;;;;;;;;;;;;;;;;;;2091928;28;1337;-92
2021/07/25 02:44:56;;;;;;;;;;;;;;;;;;2100064;28;1321;-92
2021/07/25 02:45:58;;;;;;;;;;;;;;;;;;2099589;28;1274;-92
2021/07/25 02:46:58;;;;;;;;;;;;;;;;;;2108344;28;1918;-92
2021/07/25 02:48:00;;;;;;;;;;;;;;;;;;2107801;28;2092;-92
2021/07/25 02:49:01;;;;;;;;;;;;;;;;;;2096923;28;2115;-93
2021/07/25 02:50:03;;;;;;;;;;;;;;;;;;2091641;28;1428;-92
2021/07/25 02:51:03;;;;;;;;;;;;;;;;;;2108060;28;1215;-92
2021/07/25 02:52:05;;;;;;;;;;;;;;;;;;2116692;28;858;-92
2021/07/25 02:53:07;;;;;;;;;;;;;;;;;;2116338;28;1342;-92
2021/07/25 02:54:09;;;;;;;;;;;;;;;;;;2107801;28;1404;-92
2021/07/25 02:55:10;;;;;;;;;;;;;;;;;;2091547;28;1450;-92
2021/07/25 02:56:12;;;;;;;;;;;;;;;;;;2099632;28;1301;-91
2021/07/25 02:57:13;;;;;;;;;;;;;;;;;;2100632;28;2029;-92
2021/07/25 02:58:15;;;;;;;;;;;;;;;;;;2108067;28;1498;-91
2021/07/25 02:59:15;;;;;;;;;;;;;;;;;;2108230;28;1486;-92
2021/07/25 03:00:19;;;;;;;;;;;;;;;;;;2108468;28;1214;-93
2021/07/25 03:01:20;;;;;;;;;;;;;;;;;;2116516;28;1495;-92
2021/07/25 03:02:21;;;;;;;;;;;;;;;;;;2115454;28;1974;-92
2021/07/25 03:03:22;;;;;;;;;;;;;;;;;;2108869;28;1041;-92
2021/07/25 03:04:24;;;;;;;;;;;;;;;;;;2108308;28;1203;-92
2021/07/25 03:05:24;;;;;;;;;;;;;;;;;;2099301;28;1407;-92
2021/07/25 03:06:26;;;;;;;;;;;;;;;;;;2099460;28;1348;-92
2021/07/25 03:07:27;;;;;;;;;;;;;;;;;;2107628;28;2020;-91
2021/07/25 03:08:30;;;;;;;;;;;;;;;;;;2108195;28;1350;-91
2021/07/25 03:09:31;;;;;;;;;;;;;;;;;;2109916;28;2096;-91
2021/07/25 03:10:33;;;;;;;;;;;;;;;;;;2108057;28;1455;-92
2021/07/25 03:11:34;;;;;;;;;;;;;;;;;;2107609;28;1250;-92
2021/07/25 03:12:36;;;;;;;;;;;;;;;;;;2107712;28;2071;-92
2021/07/25 03:13:37;;;;;;;;;;;;;;;;;;2099907;28;1487;-92
2021/07/25 03:14:39;;;;;;;;;;;;;;;;;;2091617;28;2034;-92
2021/07/25 03:15:39;;;;;;;;;;;;;;;;;;2099675;28;1422;-91
2021/07/25 03:16:41;;;;;;;;;;;;;;;;;;2091374;28;1395;-91
2021/07/25 03:17:42;;;;;;;;;;;;;;;;;;2104735;28;1294;-91
2021/07/25 03:18:44;;;;;;;;;;;;;;;;;;2116216;28;2001;-91
2021/07/25 03:19:44;;;;;;;;;;;;;;;;;;2116198;28;1361;-91
2021/07/25 03:20:46;;;;;;;;;;;;;;;;;;2115973;28;1341;-91
2021/07/25 03:21:47;;;;;;;;;;;;;;;;;;2116034;28;1419;-91
2021/07/25 03:22:49;;;;;;;;;;;;;;;;;;2107954;28;1308;-91
2021/07/25 03:23:51;;;;;;;;;;;;;;;;;;2099872;28;1331;-92
2021/07/25 03:24:54;;;;;;;;;;;;;;;;;;2099939;28;884;-91
2021/07/25 03:25:54;;;;;;;;;;;;;;;;;;2083293;28;1425;-91
2021/07/25 03:26:56;;;;;;;;;;;;;;;;;;2090949;28;1918;-92
2021/07/25 03:27:57;;;;;;;;;;;;;;;;;;2107675;28;1164;-91
2021/07/25 03:28:59;;;;;;;;;;;;;;;;;;2107585;28;1367;-91
2021/07/25 03:29:59;;;;;;;;;;;;;;;;;;2099787;28;1176;-91
2021/07/25 03:31:01;;;;;;;;;;;;;;;;;;2099674;28;874;-91
2021/07/25 03:32:02;;;;;;;;;;;;;;;;;;2108238;28;898;-91
2021/07/25 03:33:04;;;;;;;;;;;;;;;;;;2106792;28;2033;-91
2021/07/25 03:34:05;;;;;;;;;;;;;;;;;;2113109;28;2020;-91
2021/07/25 03:35:07;;;;;;;;;;;;;;;;;;2107976;28;1425;-91
2021/07/25 03:36:10;;;;;;;;;;;;;;;;;;2108443;28;1361;-91
2021/07/25 03:37:11;;;;;;;;;;;;;;;;;;2116469;28;1292;-90
2021/07/25 03:38:12;;;;;;;;;;;;;;;;;;2108269;28;1547;-91
2021/07/25 03:39:16;;;;;;;;;;;;;;;;;;2099190;28;1277;-91
2021/07/25 03:40:18;;;;;;;;;;;;;;;;;;2099686;28;1450;-94
2021/07/25 03:41:19;;;;;;;;;;;;;;;;;;2099627;28;1462;-94
2021/07/25 03:42:21;;;;;;;;;;;;;;;;;;2101602;28;1211;-94
2021/07/25 03:43:22;;;;;;;;;;;;;;;;;;2099611;28;1435;-95
2021/07/25 03:44:24;;;;;;;;;;;;;;;;;;2090831;28;1302;-93
2021/07/25 03:45:24;;;;;;;;;;;;;;;;;;2099530;28;1340;-94
2021/07/25 03:46:26;;;;;;;;;;;;;;;;;;2107503;28;1230;-94
2021/07/25 03:47:27;;;;;;;;;;;;;;;;;;2108120;28;1906;-95
2021/07/25 03:48:29;;;;;;;;;;;;;;;;;;2116205;28;1446;-95
2021/07/25 03:49:31;;;;;;;;;;;;;;;;;;2116201;28;1284;-94
2021/07/25 03:50:33;;;;;;;;;;;;;;;;;;2115833;28;1075;-95
2021/07/25 03:51:34;;;;;;;;;;;;;;;;;;2116879;28;1359;-95
2021/07/25 03:52:36;;;;;;;;;;;;;;;;;;2111984;28;1762;-95
2021/07/25 03:53:37;;;;;;;;;;;;;;;;;;2108196;28;1062;-95
2021/07/25 03:54:42;;;;;;;;;;;;;;;;;;2115256;28;1416;-95
2021/07/25 03:55:43;;;;;;;;;;;;;;;;;;2116688;28;1004;-95
2021/07/25 03:56:45;;;;;;;;;;;;;;;;;;2116262;28;1479;-95
2021/07/25 03:57:46;;;;;;;;;;;;;;;;;;2115906;28;1322;-95
2021/07/25 03:58:47;;;;;;;;;;;;;;;;;;2115506;28;1238;-94
2021/07/25 03:59:48;;;;;;;;;;;;;;;;;;2107585;28;1418;-95
2021/07/25 04:00:50;;;;;;;;;;;;;;;;;;2107834;28;974;-95
2021/07/25 04:01:50;;;;;;;;;;;;;;;;;;2108148;28;1182;-96
2021/07/25 04:02:53;;;;;;;;;;;;;;;;;;2107297;28;1431;-95
2021/07/25 04:03:53;;;;;;;;;;;;;;;;;;2099575;28;1309;-95
2021/07/25 04:04:55;;;;;;;;;;;;;;;;;;2107667;28;1210;-95
2021/07/25 04:05:56;;;;;;;;;;;;;;;;;;2108624;28;831;-94
2021/07/25 04:06:58;;;;;;;;;;;;;;;;;;2107498;28;1976;-94
2021/07/25 04:08:05;;;;;;;;;;;;;;;;;;2107626;28;1250;-95
2021/07/25 04:09:07;;;;;;;;;;;;;;;;;;2107511;28;1829;-95
2021/07/25 04:10:10;;;;;;;;;;;;;;;;;;2099908;28;1495;-95
2021/07/25 04:11:17;;;;;;;;;;;;;;;;;;2099605;28;1402;-95
2021/07/25 04:12:17;;;;;;;;;;;;;;;;;;2108165;28;839;-95
2021/07/25 04:13:19;;;;;;;;;;;;;;;;;;2107483;28;1396;-95
2021/07/25 04:14:20;;;;;;;;;;;;;;;;;;2104685;28;1326;-93
2021/07/25 04:15:22;;;;;;;;;;;;;;;;;;2116544;28;778;-96
2021/07/25 04:16:23;;;;;;;;;;;;;;;;;;2116012;28;1303;-95
2021/07/25 04:17:25;;;;;;;;;;;;;;;;;;2115935;28;1999;-94
2021/07/25 04:18:25;;;;;;;;;;;;;;;;;;2116163;28;1418;-95
2021/07/25 04:19:28;;;;;;;;;;;;;;;;;;2115024;28;2013;-96
2021/07/25 04:20:28;;;;;;;;;;;;;;;;;;2107616;28;1294;-95
2021/07/25 04:21:31;;;;;;;;;;;;;;;;;;2107395;28;1132;-95
2021/07/25 04:22:32;;;;;;;;;;;;;;;;;;2107615;28;1364;-96
2021/07/25 04:23:34;;;;;;;;;;;;;;;;;;2107857;28;1544;-95
2021/07/25 04:24:34;;;;;;;;;;;;;;;;;;2109093;28;1229;-95
2021/07/25 04:25:38;;;;;;;;;;;;;;;;;;2109589;28;1248;-94
2021/07/25 04:26:39;;;;;;;;;;;;;;;;;;2109540;28;1274;-95
2021/07/25 04:27:41;;;;;;;;;;;;;;;;;;2117736;28;1914;-95
2021/07/25 04:28:42;;;;;;;;;;;;;;;;;;2108970;28;1246;-95
2021/07/25 04:29:45;;;;;;;;;;;;;;;;;;2101280;28;1143;-95
2021/07/25 04:30:46;;;;;;;;;;;;;;;;;;2100909;28;1434;-95
2021/07/25 04:31:48;;;;;;;;;;;;;;;;;;2109036;28;1491;-95
2021/07/25 04:32:49;;;;;;;;;;;;;;;;;;2116608;28;2063;-95
2021/07/25 04:33:53;;;;;;;;;;;;;;;;;;2116733;28;2107;-95
2021/07/25 04:34:54;;;;;;;;;;;;;;;;;;2117862;28;1199;-95
2021/07/25 04:35:56;;;;;;;;;;;;;;;;;;2117377;28;1309;-95
2021/07/25 04:36:59;;;;;;;;;;;;;;;;;;2118430;28;875;-95
2021/07/25 04:38:01;;;;;;;;;;;;;;;;;;2117630;28;1412;-94
2021/07/25 04:39:05;;;;;;;;;;;;;;;;;;2106448;28;1158;-95
2021/07/25 04:40:08;;;;;;;;;;;;;;;;;;2101747;28;1318;-95
2021/07/25 04:41:12;;;;;;;;;;;;;;;;;;2092102;28;1482;-94
2021/07/25 04:42:15;;;;;;;;;;;;;;;;;;2101371;28;1383;-96
2021/07/25 04:43:17;;;;;;;;;;;;;;;;;;2101407;28;808;-95
2021/07/25 04:44:22;;;;;;;;;;;;;;;;;;2101445;28;855;-95
2021/07/25 04:45:27;;;;;;;;;;;;;;;;;;2109507;28;1290;-95
2021/07/25 04:46:29;;;;;;;;;;;;;;;;;;2108779;28;1419;-95
2021/07/25 04:47:34;;;;;;;;;;;;;;;;;;2104303;28;1967;-95
2021/07/25 04:48:41;;;;;;;;;;;;;;;;;;2108393;28;1197;-95
2021/07/25 04:49:56;;;;;;;;;;;;;;;;;;2100573;28;1361;-95
2021/07/25 04:51:04;;;;;;;;;;;;;;;;;;2094249;28;1358;-94
2021/07/25 04:52:06;;;;;;;;;;;;;;;;;;2101969;28;1359;-93
2021/07/25 04:53:13;;;;;;;;;;;;;;;;;;2100759;28;1203;-95
2021/07/25 04:54:14;;;;;;;;;;;;;;;;;;2098121;28;1126;-95
2021/07/25 04:55:16;;;;;;;;;;;;;;;;;;2092239;28;1280;-95
2021/07/25 04:56:19;;;;;;;;;;;;;;;;;;2093040;28;1290;-95
2021/07/25 04:57:26;;;;;;;;;;;;;;;;;;2103072;28;1956;-95
2021/07/25 04:58:28;;;;;;;;;;;;;;;;;;2108899;28;1564;-95
2021/07/25 04:59:31;;;;;;;;;;;;;;;;;;2109284;28;880;-95
2021/07/25 05:00:32;;;;;;;;;;;;;;;;;;2109687;28;854;-95
2021/07/25 05:01:37;;;;;;;;;;;;;;;;;;2117288;28;1336;-96
2021/07/25 05:02:39;;;;;;;;;;;;;;;;;;2113097;28;1286;-95
2021/07/25 05:03:41;;;;;;;;;;;;;;;;;;2117030;28;1386;-95
2021/07/25 05:04:42;;;;;;;;;;;;;;;;;;2108425;28;1878;-95
2021/07/25 05:05:44;;;;;;;;;;;;;;;;;;2100902;28;1361;-95
2021/07/25 05:06:45;;;;;;;;;;;;;;;;;;2100577;28;1253;-94
2021/07/25 05:07:47;;;;;;;;;;;;;;;;;;2092336;28;1890;-95
2021/07/25 05:08:48;;;;;;;;;;;;;;;;;;2100443;28;1046;-95
2021/07/25 05:09:50;;;;;;;;;;;;;;;;;;2109418;28;1464;-94
2021/07/25 05:10:52;;;;;;;;;;;;;;;;;;2099994;28;1277;-95
2021/07/25 05:11:58;;;;;;;;;;;;;;;;;;2100194;28;1479;-95
2021/07/25 05:13:02;;;;;;;;;;;;;;;;;;2101006;28;1270;-93
2021/07/25 05:14:05;;;;;;;;;;;;;;;;;;2108734;28;1858;-93
2021/07/25 05:15:10;;;;;;;;;;;;;;;;;;2108591;28;1373;-95
2021/07/25 05:16:13;;;;;;;;;;;;;;;;;;2108360;28;1234;-95
2021/07/25 05:17:17;;;;;;;;;;;;;;;;;;2102060;28;1244;-95
2021/07/25 05:18:21;;;;;;;;;;;;;;;;;;2108794;28;1340;-95
2021/07/25 05:19:26;;;;;;;;;;;;;;;;;;2101079;28;1516;-95
2021/07/25 05:20:35;;;;;;;;;;;;;;;;;;2108578;28;1145;-94
2021/07/25 05:21:41;;;;;;;;;;;;;;;;;;2109098;28;1492;-95
2021/07/25 05:22:48;;;;;;;;;;;;;;;;;;2095436;28;1879;-94
2021/07/25 05:23:52;;;;;;;;;;;;;;;;;;2101423;28;1249;-94
2021/07/25 05:24:54;;;;;;;;;;;;;;;;;;2100611;28;1206;-95
2021/07/25 05:25:55;;;;;;;;;;;;;;;;;;2108487;28;1286;-95
2021/07/25 05:27:01;;;;;;;;;;;;;;;;;;2109213;28;1483;-94
2021/07/25 05:28:05;;;;;;;;;;;;;;;;;;2107806;28;1922;-94
2021/07/25 05:29:07;;;;;;;;;;;;;;;;;;2097338;28;1415;-94
2021/07/25 05:30:09;;;;;;;;;;;;;;;;;;2091910;28;1459;-93
2021/07/25 05:31:11;;;;;;;;;;;;;;;;;;2108981;28;1411;-94
2021/07/25 05:32:12;;;;;;;;;;;;;;;;;;2109675;28;827;-93
2021/07/25 05:33:13;;;;;;;;;;;;;;;;;;2108668;28;1356;-93
2021/07/25 05:34:14;;;;;;;;;;;;;;;;;;2101077;28;2159;-94
2021/07/25 05:35:16;;;;;;;;;;;;;;;;;;2100470;28;1477;-94
2021/07/25 05:36:17;;;;;;;;;;;;;;;;;;2093021;28;1238;-93
2021/07/25 05:37:19;;;;;;;;;;;;;;;;;;2107292;28;2009;-93
2021/07/25 05:38:19;;;;;;;;;;;;;;;;;;2108848;28;1581;-96
2021/07/25 05:39:21;;;;;;;;;;;;;;;;;;2103493;28;1144;-95
2021/07/25 05:40:22;;;;;;;;;;;;;;;;;;2091662;28;1380;-94
2021/07/25 05:41:24;;;;;;;;;;;;;;;;;;2085407;28;1468;-95
2021/07/25 05:42:26;;;;;;;;;;;;;;;;;;2100026;28;1752;-95
2021/07/25 05:43:28;;;;;;;;;;;;;;;;;;2116899;28;1121;-95
2021/07/25 05:44:31;;;;;;;;;;;;;;;;;;2116366;28;2007;-95
2021/07/25 05:45:33;;;;;;;;;;;;;;;;;;2103307;28;1413;-92
2021/07/25 05:46:33;;;;;;;;;;;;;;;;;;2108067;28;1312;-96
2021/07/25 05:47:35;;;;;;;;;;;;;;;;;;2107895;28;1981;-95
2021/07/25 05:48:36;;;;;;;;;;;;;;;;;;2116133;28;1348;-94
2021/07/25 05:49:38;;;;;;;;;;;;;;;;;;2115778;28;2109;-95
2021/07/25 05:50:39;;;;;;;;;;;;;;;;;;2108389;28;1375;-95
2021/07/25 05:51:40;;;;;;;;;;;;;;;;;;2116577;28;1264;-94
2021/07/25 05:52:42;;;;;;;;;;;;;;;;;;2099770;28;1507;-95
2021/07/25 05:53:44;;;;;;;;;;;;;;;;;;2100156;28;2028;-94
2021/07/25 05:54:45;;;;;;;;;;;;;;;;;;2113415;28;1268;-93
2021/07/25 05:55:46;;;;;;;;;;;;;;;;;;2116917;28;1296;-94
2021/07/25 05:56:47;;;;;;;;;;;;;;;;;;2116715;28;1291;-94
2021/07/25 05:57:51;;;;;;;;;;;;;;;;;;2107516;28;1993;-93
2021/07/25 05:58:51;;;;;;;;;;;;;;;;;;2100480;28;1766;-95
2021/07/25 05:59:53;;;;;;;;;;;;;;;;;;2108193;28;1323;-95
2021/07/25 06:00:54;;;;;;;;;;;;;;;;;;2091878;28;1402;-94
2021/07/25 06:01:56;;;;;;;;;;;;;;;;;;2091647;28;1410;-94
2021/07/25 06:02:58;;;;;;;;;;;;;;;;;;2098948;28;1978;-93
2021/07/25 06:04:00;;;;;;;;;;;;;;;;;;2097822;28;2017;-95
2021/07/25 06:05:00;;;;;;;;;;;;;;;;;;2108282;28;1360;-87
2021/07/25 06:06:02;;;;;;;;;;;;;;;;;;2109502;28;1337;-88
2021/07/25 06:07:03;;;;;;;;;;;;;;;;;;2107753;28;1447;-89
2021/07/25 06:08:06;;;;;;;;;;;;;;;;;;2116128;28;2011;-88
2021/07/25 06:09:07;;;;;;;;;;;;;;;;;;2107628;28;1347;-88
2021/07/25 06:10:09;;;;;;;;;;;;;;;;;;2099771;28;1412;-88
2021/07/25 06:11:11;;;;;;;;;;;;;;;;;;2116689;28;1324;-88
2021/07/25 06:12:14;;;;;;;;;;;;;;;;;;2114016;28;1660;-90
2021/07/25 06:13:17;;;;;;;;;;;;;;;;;;2117349;28;885;-88
2021/07/25 06:14:18;;;;;;;;;;;;;;;;;;2099928;28;1529;-88
2021/07/25 06:15:20;;;;;;;;;;;;;;;;;;2091234;28;1293;-89
2021/07/25 06:16:20;;;;;;;;;;;;;;;;;;2116745;28;1389;-87
2021/07/25 06:17:22;;;;;;;;;;;;;;;;;;2116662;28;2135;-90
2021/07/25 06:18:23;;;;;;;;;;;;;;;;;;2123361;27;1398;-89
2021/07/25 06:21:00;;;;;;;;;;;;;;;;;;2116477;28;1453;-88
2021/07/25 06:22:00;;;;;;;;;;;;;;;;;;2116924;28;1406;-88
2021/07/25 06:23:03;;;;;;;;;;;;;;;;;;2108066;28;1371;-89
2021/07/25 06:24:04;;;;;;;;;;;;;;;;;;2099974;28;1345;-88
2021/07/25 06:25:06;;;;;;;;;;;;;;;;;;2099799;28;1466;-89
2021/07/25 06:26:06;;;;;;;;;;;;;;;;;;2099825;28;1241;-89
2021/07/25 06:27:08;;;;;;;;;;;;;;;;;;2107216;28;1835;-89
2021/07/25 06:28:09;;;;;;;;;;;;;;;;;;2107423;28;1987;-88
2021/07/25 06:29:13;;;;;;;;;;;;;;;;;;2099544;28;1441;-88
2021/07/25 06:30:13;;;;;;;;;;;;;;;;;;2108166;28;1520;-88
2021/07/25 06:31:15;;;;;;;;;;;;;;;;;;2116421;28;1171;-88
2021/07/25 06:32:16;;;;;;;;;;;;;;;;;;2116590;28;2020;-91
2021/07/25 06:33:18;;;;;;;;;;;;;;;;;;2108270;28;1437;-88
2021/07/25 06:34:18;;;;;;;;;;;;;;;;;;2102774;28;1701;-86
2021/07/25 06:35:20;;;;;;;;;;;;;;;;;;2107411;28;1254;-86
2021/07/25 06:36:24;;;;;;;;;;;;;;;;;;2116313;28;1287;-87
2021/07/25 06:37:25;;;;;;;;;;;;;;;;;;2108021;28;1459;-84
2021/07/25 06:38:27;;;;;;;;;;;;;;;;;;2116491;28;1673;-87
2021/07/25 06:39:27;;;;;;;;;;;;;;;;;;2116023;28;1398;-86
2021/07/25 06:40:30;;;;;;;;;;;;;;;;;;2108038;28;1431;-87
2021/07/25 06:41:30;;;;;;;;;;;;;;;;;;2108162;28;1431;-87
2021/07/25 06:42:32;;;;;;;;;;;;;;;;;;2114375;28;1257;-87
2021/07/25 06:43:33;;;;;;;;;;;;;;;;;;2108025;28;1494;-85
2021/07/25 06:44:37;;;;;;;;;;;;;;;;;;2108048;28;820;-90
2021/07/25 06:45:39;;;;;;;;;;;;;;;;;;2098818;28;1414;-88
2021/07/25 06:46:40;;;;;;;;;;;;;;;;;;2090516;28;1362;-88
2021/07/25 06:47:46;;;;;;;;;;;;;;;;;;2099276;28;1318;-87
2021/07/25 06:48:47;;;;;;;;;;;;;;;;;;2099760;28;1971;-87
2021/07/25 06:49:49;;;;;;;;;;;;;;;;;;2107620;28;1976;-87
2021/07/25 06:50:50;;;;;;;;;;;;;;;;;;2100289;28;1627;-88
2021/07/25 06:51:52;;;;;;;;;;;;;;;;;;2099443;28;1328;-86
2021/07/25 06:52:54;;;;;;;;;;;;;;;;;;2091079;28;1849;-85
2021/07/25 06:53:56;;;;;;;;;;;;;;;;;;2082975;28;1680;-87
2021/07/25 06:54:56;;;;;;;;;;;;;;;;;;2100749;28;1360;-87
2021/07/25 06:56:00;;;;;;;;;;;;;;;;;;2116685;28;842;-91
2021/07/25 06:57:01;;;;;;;;;;;;;;;;;;2117063;28;855;-90
2021/07/25 06:58:03;;;;;;;;;;;;;;;;;;2100390;28;1276;-87
2021/07/25 06:59:04;;;;;;;;;;;;;;;;;;2093977;28;2086;-86
2021/07/25 07:00:10;;;;;;;;;;;;;;;;;;2091470;28;1387;-87
2021/07/25 07:01:11;;;;;;;;;;;;;;;;;;2084213;28;1287;-86
2021/07/25 07:02:13;;;;;;;;;;;;;;;;;;2100739;28;891;-85
2021/07/25 07:03:17;;;;;;;;;;;;;;;;;;2107328;28;1388;-86
2021/07/25 07:04:19;;;;;;;;;;;;;;;;;;2102686;28;1339;-87
2021/07/25 07:05:20;;;;;;;;;;;;;;;;;;2107659;28;1685;-89
2021/07/25 07:06:22;;;;;;;;;;;;;;;;;;2099618;28;1317;-88
2021/07/25 07:07:22;;;;;;;;;;;;;;;;;;2099459;28;1626;-89
2021/07/25 07:08:24;;;;;;;;;;;;;;;;;;2099261;28;1971;-88
2021/07/25 07:09:25;;;;;;;;;;;;;;;;;;2099222;28;1852;-88
2021/07/25 07:10:27;;;;;;;;;;;;;;;;;;2099347;28;1308;-90
2021/07/25 07:11:28;;;;;;;;;;;;;;;;;;2100090;28;1257;-89
2021/07/25 07:12:30;;;;;;;;;;;;;;;;;;2097224;28;1650;-88